Time;durP1;ratioP1;P1;durP2;ratioP2;P2;SDS_P1;SDS_P2;PMS_P1;PMS_P2;Temp;Humidity;BMP_temperature;BMP_pressure;BME280_temperature;BME280_humidity;BME280_pressure;Samples;Min_cycle;Max_cycle;Signal;HPM_P1;HPM_P2
2021/09/16 00:01:47;;;;;;;19.93;17.93;;;19.00;99.90;;;;;;5031153;28;20164;-70
2021/09/16 00:04:13;;;;;;;19.80;17.30;;;19.10;99.90;;;;;;5031015;28;20226;-69
2021/09/16 00:06:38;;;;;;;17.27;15.47;;;19.10;99.90;;;;;;5031128;28;20629;-69
2021/09/16 00:09:04;;;;;;;22.23;17.63;;;19.10;99.90;;;;;;5031574;28;20181;-70
2021/09/16 00:11:30;;;;;;;19.00;17.27;;;19.10;99.90;;;;;;5031443;28;20261;-69
2021/09/16 00:13:56;;;;;;;16.10;14.50;;;19.00;99.90;;;;;;5013244;28;20428;-69
2021/09/16 00:16:22;;;;;;;15.17;13.63;;;19.00;99.90;;;;;;5031095;28;20178;-70
2021/09/16 00:18:47;;;;;;;15.77;14.23;;;19.10;99.90;;;;;;5031299;28;20411;-70
2021/09/16 00:21:13;;;;;;;14.50;13.10;;;19.10;99.90;;;;;;5030270;28;20186;-70
2021/09/16 00:23:38;;;;;;;14.00;12.70;;;19.00;99.90;;;;;;5031048;28;20282;-70
2021/09/16 00:26:04;;;;;;;16.00;14.43;;;19.00;99.90;;;;;;5030815;28;20174;-70
2021/09/16 00:28:29;;;;;;;15.37;13.77;;;19.00;99.90;;;;;;5031022;28;20169;-70
2021/09/16 00:30:55;;;;;;;15.30;13.67;;;19.00;99.90;;;;;;5030915;28;20180;-70
2021/09/16 00:33:20;;;;;;;14.87;13.30;;;18.90;99.90;;;;;;5031065;28;20226;-70
2021/09/16 00:35:46;;;;;;;14.57;13.07;;;19.00;99.90;;;;;;5030841;28;20544;-70
2021/09/16 00:38:12;;;;;;;18.07;16.23;;;19.00;99.90;;;;;;5030158;28;20172;-70
2021/09/16 00:40:37;;;;;;;16.30;14.70;;;18.90;99.90;;;;;;5030940;28;20634;-70
2021/09/16 00:43:02;;;;;;;15.90;14.37;;;18.90;99.90;;;;;;5030883;28;20469;-70
2021/09/16 00:45:29;;;;;;;17.73;16.00;;;18.90;99.90;;;;;;5012956;28;20161;-70
2021/09/16 00:47:55;;;;;;;15.23;13.60;;;18.90;99.90;;;;;;5030989;28;20624;-70
2021/09/16 00:50:23;;;;;;;18.10;15.10;;;18.90;99.90;;;;;;5031023;28;20450;-70
2021/09/16 00:52:50;;;;;;;17.23;15.43;;;18.80;99.90;;;;;;5030558;28;20183;-70
2021/09/16 00:55:16;;;;;;;16.13;14.03;;;18.80;99.90;;;;;;5030778;28;20729;-70
2021/09/16 00:57:49;;;;;;;16.00;14.33;;;18.80;99.90;;;;;;5033095;28;20427;-70
2021/09/16 01:00:16;;;;;;;23.10;14.30;;;18.80;99.90;;;;;;5034953;28;20209;-70
2021/09/16 01:02:42;;;;;;;16.43;14.70;;;18.80;99.90;;;;;;5034060;28;20416;-70
2021/09/16 01:05:08;;;;;;;16.40;14.70;;;18.80;99.90;;;;;;5034422;28;20419;-70
2021/09/16 01:07:36;;;;;;;16.13;14.10;;;18.80;99.90;;;;;;5017321;28;20181;-70
2021/09/16 01:10:02;;;;;;;18.30;15.47;;;18.80;99.90;;;;;;5014574;28;20420;-69
2021/09/16 01:12:28;;;;;;;15.00;13.57;;;18.80;99.90;;;;;;5014466;28;20485;-70
2021/09/16 01:14:54;;;;;;;20.63;17.03;;;18.80;99.90;;;;;;5014392;28;20876;-70
2021/09/16 01:17:19;;;;;;;17.37;15.40;;;18.70;99.90;;;;;;4996495;28;20172;-70
2021/09/16 01:19:45;;;;;;;18.33;16.20;;;18.70;99.90;;;;;;5014358;28;20527;-69
2021/09/16 01:22:25;;;;;;;17.40;14.63;;;18.70;99.90;;;;;;5014452;28;20246;-69
2021/09/16 01:24:51;;;;;;;16.53;14.90;;;18.70;99.90;;;;;;4998400;28;20262;-70
2021/09/16 01:27:17;;;;;;;16.40;14.80;;;18.70;99.90;;;;;;5014024;28;20404;-70
2021/09/16 01:29:43;;;;;;;17.07;15.33;;;18.70;99.90;;;;;;5014207;28;20217;-70
2021/09/16 01:32:09;;;;;;;20.67;15.40;;;18.70;99.90;;;;;;4996559;28;20462;-70
2021/09/16 01:34:34;;;;;;;16.93;15.27;;;18.60;99.90;;;;;;5014048;28;20247;-70
2021/09/16 01:37:00;;;;;;;19.90;15.60;;;18.60;99.90;;;;;;5013625;28;20173;-70
2021/09/16 01:39:26;;;;;;;17.83;16.07;;;18.60;99.90;;;;;;4996302;28;20248;-68
2021/09/16 01:41:52;;;;;;;15.73;14.10;;;18.60;99.90;;;;;;5013917;28;20748;-69
2021/09/16 01:44:18;;;;;;;16.07;14.40;;;18.60;99.90;;;;;;5013834;28;20207;-69
2021/09/16 01:46:43;;;;;;;15.53;13.93;;;18.60;99.90;;;;;;5013658;28;20412;-69
2021/09/16 01:49:10;;;;;;;15.97;14.30;;;18.50;99.90;;;;;;5013853;28;20775;-69
2021/09/16 01:51:35;;;;;;;16.97;15.30;;;18.50;99.90;;;;;;5014287;28;20199;-70
2021/09/16 01:54:02;;;;;;;15.20;13.70;;;18.50;99.90;;;;;;5013521;28;20432;-69
2021/09/16 01:56:28;;;;;;;17.13;14.10;;;18.40;99.90;;;;;;5013788;28;20611;-69
2021/09/16 01:58:53;;;;;;;12.50;11.20;;;18.40;99.90;;;;;;5014103;28;20423;-69
2021/09/16 02:01:19;;;;;;;13.27;11.87;;;18.30;99.90;;;;;;5013583;28;20174;-69
2021/09/16 02:03:45;;;;;;;16.30;10.67;;;18.30;99.90;;;;;;5013736;28;20188;-69
2021/09/16 02:06:11;;;;;;;13.23;11.23;;;18.30;99.90;;;;;;5013468;28;20650;-69
2021/09/16 02:08:36;;;;;;;12.93;11.67;;;18.30;99.90;;;;;;5013112;28;20414;-69
2021/09/16 02:11:02;;;;;;;14.87;11.70;;;18.30;99.90;;;;;;5013374;28;20181;-69
2021/09/16 02:13:28;;;;;;;13.73;12.33;;;18.30;99.90;;;;;;5013450;28;20271;-69
2021/09/16 02:15:54;;;;;;;15.80;12.30;;;18.30;99.90;;;;;;5013255;28;20541;-69
2021/09/16 02:18:19;;;;;;;15.03;12.80;;;18.30;99.90;;;;;;5013795;28;20173;-68
2021/09/16 02:20:45;;;;;;;14.33;12.90;;;18.30;99.90;;;;;;5013327;28;20173;-68
2021/09/16 02:23:10;;;;;;;14.73;13.13;;;18.30;99.90;;;;;;5013074;28;20291;-68
2021/09/16 02:25:36;;;;;;;17.33;13.93;;;18.20;99.90;;;;;;5013318;28;20591;-70
2021/09/16 02:28:01;;;;;;;17.77;15.97;;;18.20;99.90;;;;;;5013288;28;20173;-69
2021/09/16 02:30:27;;;;;;;15.83;12.87;;;18.30;99.90;;;;;;5013575;28;20279;-70
2021/09/16 02:32:52;;;;;;;14.73;13.20;;;18.20;99.90;;;;;;5013139;28;20204;-70
2021/09/16 02:35:18;;;;;;;15.90;14.40;;;18.20;99.90;;;;;;5013050;28;20675;-70
2021/09/16 02:37:43;;;;;;;16.27;14.63;;;18.20;99.90;;;;;;4995122;28;20171;-69
2021/09/16 02:40:10;;;;;;;16.30;14.10;;;18.20;99.90;;;;;;5013240;28;20591;-70
2021/09/16 02:42:36;;;;;;;17.00;14.60;;;18.20;99.90;;;;;;5013196;28;20167;-69
2021/09/16 02:45:02;;;;;;;16.67;14.30;;;18.10;99.90;;;;;;5012937;28;20798;-69
2021/09/16 02:47:28;;;;;;;14.30;12.80;;;18.10;99.90;;;;;;5012452;28;20176;-70
2021/09/16 02:49:53;;;;;;;17.00;15.20;;;18.10;99.90;;;;;;5012867;28;20883;-70
2021/09/16 02:52:19;;;;;;;16.80;13.73;;;18.20;99.90;;;;;;5012412;28;20201;-69
2021/09/16 02:54:44;;;;;;;20.10;13.60;;;18.10;99.90;;;;;;5012850;28;20246;-70
2021/09/16 02:57:09;;;;;;;14.87;13.37;;;18.10;99.90;;;;;;5012510;28;20224;-69
2021/09/16 02:59:35;;;;;;;16.20;13.50;;;18.10;99.90;;;;;;5012624;28;20172;-69
2021/09/16 03:02:00;;;;;;;17.73;13.10;;;18.00;99.90;;;;;;5012414;28;20177;-70
2021/09/16 03:04:26;;;;;;;17.10;13.53;;;18.00;99.90;;;;;;5012506;28;20206;-70
2021/09/16 03:06:51;;;;;;;16.70;13.07;;;18.00;99.90;;;;;;5011494;28;20181;-70
2021/09/16 03:09:17;;;;;;;15.33;13.50;;;18.00;99.90;;;;;;5012463;28;20329;-70
2021/09/16 03:11:43;;;;;;;14.00;12.50;;;18.10;99.90;;;;;;5012445;28;20201;-69
2021/09/16 03:14:09;;;;;;;20.63;11.80;;;18.00;99.90;;;;;;5012145;28;20563;-69
2021/09/16 03:16:34;;;;;;;14.20;12.60;;;18.00;99.90;;;;;;4993842;28;20169;-69
2021/09/16 03:18:59;;;;;;;16.23;12.63;;;18.10;99.90;;;;;;5011719;28;20180;-69
2021/09/16 03:21:25;;;;;;;16.90;15.10;;;18.00;99.90;;;;;;5012431;28;20202;-69
2021/09/16 03:23:50;;;;;;;17.17;13.97;;;18.00;99.90;;;;;;5012117;28;20214;-70
2021/09/16 03:26:16;;;;;;;14.60;13.07;;;18.00;99.90;;;;;;5012042;28;20169;-70
2021/09/16 03:28:41;;;;;;;16.47;13.90;;;18.00;99.90;;;;;;5012016;28;20172;-69
2021/09/16 03:31:07;;;;;;;15.80;14.10;;;18.00;99.90;;;;;;5011947;28;20247;-69
2021/09/16 03:33:33;;;;;;;15.83;13.20;;;18.00;99.90;;;;;;5011884;28;20593;-69
2021/09/16 03:35:59;;;;;;;18.33;15.03;;;18.00;99.90;;;;;;5011626;28;20266;-69
2021/09/16 03:38:25;;;;;;;16.17;14.37;;;18.00;99.90;;;;;;5011747;28;20461;-70
2021/09/16 03:40:51;;;;;;;19.20;15.63;;;18.00;99.90;;;;;;5011742;28;20284;-69
2021/09/16 03:43:17;;;;;;;22.37;18.67;;;18.00;99.90;;;;;;5011763;28;20510;-69
2021/09/16 03:45:42;;;;;;;20.70;16.10;;;18.00;99.90;;;;;;5011593;28;20184;-69
2021/09/16 03:48:08;;;;;;;20.93;16.20;;;18.00;99.90;;;;;;5011629;28;20272;-69
2021/09/16 03:50:34;;;;;;;19.03;16.90;;;18.00;99.90;;;;;;5011465;28;20636;-69
2021/09/16 03:53:00;;;;;;;22.53;17.17;;;18.00;99.90;;;;;;5011475;28;20212;-69
2021/09/16 03:55:26;;;;;;;22.40;19.57;;;18.00;99.90;;;;;;5011266;28;20417;-69
2021/09/16 03:57:51;;;;;;;25.93;20.63;;;18.00;99.90;;;;;;5011593;28;20928;-69
2021/09/16 04:00:18;;;;;;;25.53;21.77;;;18.00;99.90;;;;;;5011589;28;20574;-69
2021/09/16 04:02:43;;;;;;;23.40;20.07;;;18.00;99.90;;;;;;5011672;28;20180;-69
2021/09/16 04:05:09;;;;;;;27.80;22.67;;;17.90;99.90;;;;;;5011304;28;20461;-69
2021/09/16 04:07:34;;;;;;;28.00;22.50;;;17.90;99.90;;;;;;5011313;28;20181;-69
2021/09/16 04:10:00;;;;;;;22.57;19.83;;;17.90;99.90;;;;;;5011310;28;20539;-69
2021/09/16 04:12:25;;;;;;;29.93;20.97;;;17.90;99.90;;;;;;5011293;28;20211;-69
2021/09/16 04:14:51;;;;;;;28.73;23.00;;;17.90;99.90;;;;;;5011360;28;20540;-69
2021/09/16 04:17:16;;;;;;;31.13;25.83;;;17.80;99.90;;;;;;5011087;28;20168;-68
2021/09/16 04:19:42;;;;;;;29.13;24.20;;;17.80;99.90;;;;;;4993761;28;20176;-69
2021/09/16 04:22:07;;;;;;;31.77;25.00;;;17.80;99.90;;;;;;5011104;28;20229;-69
2021/09/16 04:24:32;;;;;;;31.17;23.40;;;17.70;99.90;;;;;;5011320;28;20214;-69
2021/09/16 04:26:58;;;;;;;36.97;24.53;;;17.60;99.90;;;;;;5010840;28;20175;-69
2021/09/16 04:29:23;;;;;;;28.90;23.20;;;17.60;99.90;;;;;;5011317;28;20244;-69
2021/09/16 04:31:49;;;;;;;28.83;22.13;;;17.60;99.90;;;;;;5014187;28;20570;-68
2021/09/16 04:34:14;;;;;;;27.80;22.53;;;17.60;99.90;;;;;;5015208;28;20203;-69
2021/09/16 04:36:40;;;;;;;35.90;25.00;;;17.50;99.90;;;;;;4997624;28;20186;-69
2021/09/16 04:39:06;;;;;;;31.83;24.30;;;17.60;99.90;;;;;;5015728;28;20566;-69
2021/09/16 04:41:33;;;;;;;29.80;23.47;;;17.60;99.90;;;;;;5015071;28;20180;-69
2021/09/16 04:43:58;;;;;;;38.37;27.50;;;17.60;99.90;;;;;;5014995;28;20434;-71
2021/09/16 04:46:24;;;;;;;34.37;24.80;;;17.50;99.90;;;;;;5015437;28;20399;-69
2021/09/16 04:48:49;;;;;;;30.53;24.27;;;17.50;99.90;;;;;;5014905;28;20185;-70
2021/09/16 04:51:15;;;;;;;30.70;24.27;;;17.50;99.90;;;;;;5014992;28;20168;-70
2021/09/16 04:53:40;;;;;;;32.20;23.63;;;17.50;99.90;;;;;;5015002;28;20189;-70
2021/09/16 04:56:06;;;;;;;26.03;21.13;;;17.50;99.90;;;;;;5014867;28;20187;-69
2021/09/16 04:58:31;;;;;;;25.90;22.30;;;17.50;99.90;;;;;;5015091;28;20550;-70
2021/09/16 05:00:57;;;;;;;26.27;20.80;;;17.50;99.90;;;;;;5014709;28;20183;-67
2021/09/16 05:03:22;;;;;;;26.30;20.93;;;17.50;99.90;;;;;;5014539;28;20274;-68
2021/09/16 05:05:48;;;;;;;29.33;19.87;;;17.50;99.90;;;;;;5014623;28;20615;-68
2021/09/16 05:08:15;;;;;;;24.47;19.90;;;17.40;99.90;;;;;;5014637;28;20183;-69
2021/09/16 05:10:41;;;;;;;27.00;21.00;;;17.40;99.90;;;;;;5014912;28;20171;-68
2021/09/16 05:13:06;;;;;;;25.77;20.17;;;17.50;99.90;;;;;;5014774;28;20510;-69
2021/09/16 05:15:32;;;;;;;23.47;19.57;;;17.50;99.90;;;;;;5014408;28;20248;-68
2021/09/16 05:17:57;;;;;;;27.40;20.70;;;17.50;99.90;;;;;;5014460;28;20202;-68
2021/09/16 05:20:23;;;;;;;23.47;19.97;;;17.50;99.90;;;;;;5014317;28;20544;-68
2021/09/16 05:22:48;;;;;;;28.43;20.60;;;17.50;99.90;;;;;;5014422;28;20179;-69
2021/09/16 05:25:14;;;;;;;24.37;19.53;;;17.40;99.90;;;;;;5014342;28;20191;-68
2021/09/16 05:27:39;;;;;;;20.33;16.87;;;17.50;99.90;;;;;;4996796;28;20187;-68
2021/09/16 05:30:05;;;;;;;25.33;18.40;;;17.40;99.90;;;;;;5014459;28;20218;-69
2021/09/16 05:32:31;;;;;;;21.63;18.63;;;17.50;99.90;;;;;;5014303;28;20196;-69
2021/09/16 05:34:56;;;;;;;20.00;17.40;;;17.50;99.90;;;;;;5014079;28;20438;-68
2021/09/16 05:37:23;;;;;;;22.33;19.07;;;17.40;99.90;;;;;;5014210;28;20176;-68
2021/09/16 05:39:49;;;;;;;18.77;16.60;;;17.50;99.90;;;;;;5014104;28;20599;-68
2021/09/16 05:42:14;;;;;;;19.40;15.17;;;17.40;99.90;;;;;;5014058;28;20543;-68
2021/09/16 05:44:40;;;;;;;20.50;15.27;;;17.40;99.90;;;;;;5014341;28;20423;-68
2021/09/16 05:47:05;;;;;;;17.90;14.63;;;17.40;99.90;;;;;;5013696;28;20266;-68
2021/09/16 05:49:31;;;;;;;15.50;14.00;;;17.40;99.90;;;;;;5014579;28;20189;-68
2021/09/16 05:51:56;;;;;;;15.97;14.23;;;17.40;99.90;;;;;;5013968;28;20287;-70
2021/09/16 05:54:22;;;;;;;18.27;13.97;;;17.40;99.90;;;;;;5014385;28;20198;-69
2021/09/16 05:56:48;;;;;;;17.30;14.67;;;17.40;99.90;;;;;;5013840;28;20594;-69
2021/09/16 05:59:14;;;;;;;13.37;11.33;;;17.30;99.90;;;;;;5014314;28;20392;-68
2021/09/16 06:01:40;;;;;;;13.53;12.23;;;17.30;99.90;;;;;;5013591;28;20186;-69
2021/09/16 06:04:05;;;;;;;10.23;9.23;;;17.40;99.90;;;;;;5013770;28;20846;-68
2021/09/16 06:06:31;;;;;;;11.10;9.57;;;17.30;99.90;;;;;;5013730;28;20177;-68
2021/09/16 06:08:56;;;;;;;10.10;8.60;;;17.30;99.90;;;;;;4996184;28;20166;-69
2021/09/16 06:11:22;;;;;;;11.03;9.57;;;17.30;99.90;;;;;;5013544;28;20205;-68
2021/09/16 06:13:47;;;;;;;9.23;7.70;;;17.20;99.90;;;;;;5014129;28;20276;-68
2021/09/16 06:16:13;;;;;;;13.10;10.27;;;17.30;99.90;;;;;;5013562;28;20187;-69
2021/09/16 06:18:38;;;;;;;11.20;9.47;;;17.30;99.90;;;;;;5013411;28;20184;-69
2021/09/16 06:21:04;;;;;;;13.40;9.50;;;17.30;99.90;;;;;;5013321;28;20541;-68
2021/09/16 06:23:30;;;;;;;11.80;9.80;;;17.30;99.90;;;;;;5013471;28;20192;-69
2021/09/16 06:25:55;;;;;;;14.20;10.83;;;17.30;99.90;;;;;;5013376;28;20165;-69
2021/09/16 06:28:21;;;;;;;12.33;10.83;;;17.30;99.90;;;;;;4995965;28;20535;-69
2021/09/16 06:30:46;;;;;;;11.20;10.20;;;17.30;99.90;;;;;;5013666;28;20267;-68
2021/09/16 06:33:14;;;;;;;11.57;10.43;;;17.40;99.90;;;;;;5013170;28;20207;-69
2021/09/16 06:35:40;;;;;;;13.33;9.43;;;17.30;99.90;;;;;;5013647;28;20578;-70
2021/09/16 06:38:06;;;;;;;9.63;8.60;;;17.40;99.90;;;;;;5013548;28;20411;-69
2021/09/16 06:40:31;;;;;;;12.10;9.50;;;17.40;99.90;;;;;;5013706;28;20404;-69
2021/09/16 06:42:57;;;;;;;11.77;9.13;;;17.60;99.90;;;;;;5013223;28;20584;-68
2021/09/16 06:45:22;;;;;;;11.10;8.27;;;17.90;99.90;;;;;;5015172;28;20249;-69
2021/09/16 06:47:48;;;;;;;7.93;7.13;;;17.90;99.90;;;;;;5015033;28;20661;-69
2021/09/16 06:50:13;;;;;;;8.80;7.57;;;17.90;99.90;;;;;;5015364;28;20173;-70
2021/09/16 06:52:39;;;;;;;7.87;7.07;;;18.20;99.90;;;;;;5014622;28;20284;-69
2021/09/16 06:55:05;;;;;;;7.43;6.73;;;18.20;99.90;;;;;;5013767;28;20277;-70
2021/09/16 06:57:30;;;;;;;12.47;8.10;;;18.20;99.90;;;;;;5014713;28;20667;-69
2021/09/16 06:59:56;;;;;;;7.27;6.57;;;18.00;99.90;;;;;;5015094;28;20407;-69
2021/09/16 07:02:21;;;;;;;10.23;6.90;;;17.80;99.90;;;;;;5013039;28;20207;-68
2021/09/16 07:04:47;;;;;;;9.30;7.50;;;17.80;99.90;;;;;;5012977;28;20210;-69
2021/09/16 07:07:12;;;;;;;9.50;8.07;;;17.80;99.90;;;;;;5012917;28;20179;-69
2021/09/16 07:09:38;;;;;;;8.37;7.57;;;17.80;99.90;;;;;;5012748;28;20240;-68
2021/09/16 07:12:04;;;;;;;7.80;6.23;;;17.90;99.90;;;;;;5012846;28;20566;-68
2021/09/16 07:14:30;;;;;;;12.87;7.23;;;17.80;99.90;;;;;;5012589;28;20422;-69
2021/09/16 07:16:57;;;;;;;8.80;6.37;;;17.60;99.90;;;;;;5012606;28;20467;-69
2021/09/16 07:19:23;;;;;;;10.00;6.70;;;17.80;99.90;;;;;;5013565;28;20543;-69
2021/09/16 07:21:49;;;;;;;8.80;6.60;;;17.80;99.90;;;;;;5032486;28;20419;-69
2021/09/16 07:24:15;;;;;;;9.10;6.67;;;18.10;99.90;;;;;;5032164;28;20430;-70
2021/09/16 07:26:41;;;;;;;8.97;7.60;;;18.30;99.90;;;;;;5032221;28;20586;-69
2021/09/16 07:29:07;;;;;;;11.60;7.03;;;18.30;99.90;;;;;;5032111;28;20415;-69
2021/09/16 07:31:33;;;;;;;6.30;5.70;;;18.60;99.90;;;;;;5031730;28;20755;-69
2021/09/16 07:33:58;;;;;;;8.27;5.93;;;18.80;99.90;;;;;;5032438;28;20186;-69
2021/09/16 07:36:24;;;;;;;7.10;6.40;;;18.80;99.90;;;;;;5032049;28;20273;-69
2021/09/16 07:38:50;;;;;;;7.80;5.90;;;19.00;99.90;;;;;;5032165;28;20482;-69
2021/09/16 07:41:16;;;;;;;8.10;6.27;;;18.90;99.90;;;;;;5032054;28;20173;-69
2021/09/16 07:43:42;;;;;;;6.93;5.77;;;19.00;99.90;;;;;;5031697;28;20188;-69
2021/09/16 07:46:07;;;;;;;7.00;5.20;;;18.70;99.90;;;;;;5031082;28;20415;-69
2021/09/16 07:48:33;;;;;;;11.50;5.40;;;18.70;99.90;;;;;;5031435;28;20249;-70
2021/09/16 07:50:59;;;;;;;6.47;4.97;;;18.30;99.90;;;;;;5031189;28;20170;-69
2021/09/16 07:53:27;;;;;;;5.90;5.00;;;18.70;99.90;;;;;;5031536;28;20218;-69
2021/09/16 07:55:53;;;;;;;6.70;4.90;;;19.00;99.90;;;;;;5031080;28;20233;-69
2021/09/16 07:58:18;;;;;;;6.40;3.70;;;18.90;99.90;;;;;;5031385;28;20411;-70
2021/09/16 08:00:44;;;;;;;4.70;4.30;;;18.70;99.90;;;;;;5031204;28;20187;-69
2021/09/16 08:03:09;;;;;;;5.40;4.53;;;19.00;99.90;;;;;;5031053;28;20172;-71
2021/09/16 08:05:35;;;;;;;6.23;4.17;;;19.00;99.90;;;;;;5030661;28;20177;-69
2021/09/16 08:08:00;;;;;;;7.60;4.30;;;19.10;99.90;;;;;;5030896;28;20534;-69
2021/09/16 08:10:25;;;;;;;6.27;3.67;;;18.90;99.90;;;;;;5031310;28;20161;-69
2021/09/16 08:12:51;;;;;;;7.83;3.60;;;18.90;99.90;;;;;;5030821;28;20571;-69
2021/09/16 08:15:18;;;;;;;5.07;3.87;;;19.20;99.90;;;;;;5030862;28;20298;-71
2021/09/16 08:17:43;;;;;;;5.20;3.07;;;19.40;99.90;;;;;;5030791;28;20163;-69
2021/09/16 08:20:10;;;;;;;3.80;2.40;;;19.00;99.90;;;;;;5031141;28;20548;-69
2021/09/16 08:22:36;;;;;;;5.83;2.73;;;18.70;99.90;;;;;;5030763;28;20258;-69
2021/09/16 08:25:03;;;;;;;3.17;2.97;;;18.80;99.90;;;;;;5031144;28;20544;-69
2021/09/16 08:27:28;;;;;;;5.43;3.33;;;19.10;99.90;;;;;;5030603;28;20416;-69
2021/09/16 08:29:54;;;;;;;4.43;3.20;;;19.10;99.90;;;;;;5030912;28;20914;-69
2021/09/16 08:32:20;;;;;;;3.60;2.30;;;19.20;99.90;;;;;;5030899;28;20202;-69
2021/09/16 08:34:45;;;;;;;3.47;3.17;;;19.30;99.90;;;;;;5013091;28;20219;-69
2021/09/16 08:37:11;;;;;;;3.77;1.87;;;19.30;99.90;;;;;;5030899;28;20645;-69
2021/09/16 08:39:37;;;;;;;1.80;1.53;;;19.30;99.90;;;;;;5030880;28;20175;-69
2021/09/16 08:42:02;;;;;;;2.70;1.90;;;19.00;99.90;;;;;;5031286;28;20173;-69
2021/09/16 08:44:28;;;;;;;4.03;2.33;;;19.30;99.90;;;;;;5030586;28;20194;-69
2021/09/16 08:46:54;;;;;;;5.93;2.40;;;18.80;99.90;;;;;;5030523;28;20646;-69
2021/09/16 08:49:19;;;;;;;6.40;2.17;;;18.90;99.90;;;;;;5013209;28;20182;-70
2021/09/16 08:51:45;;;;;;;4.03;2.17;;;18.90;99.90;;;;;;5030749;28;20291;-69
2021/09/16 08:54:11;;;;;;;4.20;2.17;;;19.20;99.90;;;;;;5030667;28;20234;-70
2021/09/16 08:56:39;;;;;;;3.07;2.23;;;19.40;99.90;;;;;;5030515;28;20177;-69
2021/09/16 08:59:07;;;;;;;2.07;1.80;;;19.60;99.90;;;;;;5030590;28;20647;-69
2021/09/16 09:01:33;;;;;;;2.60;1.80;;;19.50;99.90;;;;;;5030847;28;20907;-69
2021/09/16 09:03:58;;;;;;;3.57;2.10;;;19.80;99.90;;;;;;5030655;28;20511;-69
2021/09/16 09:06:28;;;;;;;1.80;1.70;;;19.90;99.90;;;;;;5030525;28;20178;-71
2021/09/16 09:09:08;;;;;;;2.30;2.10;;;19.90;99.90;;;;;;5030721;28;20163;-70
2021/09/16 09:11:53;;;;;;;4.83;2.20;;;19.40;99.90;;;;;;5030385;28;20542;-69
2021/09/16 09:14:21;;;;;;;2.17;1.97;;;19.10;99.90;;;;;;5030610;28;20421;-70
2021/09/16 09:16:46;;;;;;;1.70;1.60;;;19.20;99.90;;;;;;5030577;28;20406;-69
2021/09/16 09:19:17;;;;;;;1.97;1.57;;;18.80;99.90;;;;;;5034078;28;20434;-71
2021/09/16 09:21:43;;;;;;;3.13;1.70;;;18.60;99.90;;;;;;5033997;28;20206;-69
2021/09/16 09:24:09;;;;;;;2.70;1.67;;;18.70;99.90;;;;;;5016608;28;20507;-69
2021/09/16 09:26:37;;;;;;;2.00;1.37;;;18.40;99.90;;;;;;5033816;28;20839;-70
2021/09/16 09:29:08;;;;;;;3.40;1.80;;;18.90;99.90;;;;;;5034361;28;20421;-69
2021/09/16 09:31:37;;;;;;;3.57;1.63;;;18.70;99.90;;;;;;5033760;28;20490;-70
2021/09/16 09:34:35;;;;;;;2.07;1.83;;;18.80;99.90;;;;;;5016090;28;20444;-70
2021/09/16 09:37:18;;;;;;;3.33;1.83;;;18.80;99.90;;;;;;5033597;28;20401;-69
2021/09/16 09:39:50;;;;;;;2.63;1.50;;;18.70;99.90;;;;;;5015966;28;20432;-68
2021/09/16 09:42:23;;;;;;;1.87;1.50;;;18.60;99.90;;;;;;5033720;28;20484;-68
2021/09/16 09:44:55;;;;;;;1.97;1.50;;;18.40;99.90;;;;;;5033610;28;20496;-68
2021/09/16 09:47:35;;;;;;;1.90;1.57;;;18.30;99.90;;;;;;5033533;28;20419;-69
2021/09/16 09:50:01;;;;;;;2.97;1.67;;;18.50;99.90;;;;;;5033744;28;20414;-68
2021/09/16 09:52:26;;;;;;;1.83;1.43;;;18.50;99.90;;;;;;5033639;28;21052;-68
2021/09/16 09:54:52;;;;;;;5.13;1.60;;;18.90;99.90;;;;;;5033803;28;20501;-69
2021/09/16 09:57:18;;;;;;;1.43;1.30;;;18.90;99.90;;;;;;5015268;28;20187;-68
2021/09/16 10:00:23;;;;;;;3.23;1.03;;;19.00;99.90;;;;;;5033558;28;20173;-68
2021/09/16 10:02:54;;;;;;;1.10;1.00;;;19.00;99.90;;;;;;5015799;28;21069;-68
2021/09/16 10:05:26;;;;;;;1.67;1.20;;;18.80;99.90;;;;;;5015848;28;20440;-68
2021/09/16 10:07:52;;;;;;;2.30;1.00;;;18.80;99.90;;;;;;5033165;28;20407;-68
2021/09/16 10:10:18;;;;;;;2.63;1.03;;;19.00;99.90;;;;;;5033717;28;20490;-68
2021/09/16 10:12:46;;;;;;;1.90;1.07;;;19.10;99.90;;;;;;5033030;28;20891;-69
2021/09/16 10:15:17;;;;;;;2.30;0.90;;;19.40;99.90;;;;;;5033110;28;20273;-69
2021/09/16 10:17:44;;;;;;;2.13;1.00;;;19.30;99.90;;;;;;5032769;28;20430;-68
2021/09/16 10:20:15;;;;;;;1.47;0.90;;;19.40;99.90;;;;;;5033138;28;20489;-69
2021/09/16 10:22:44;;;;;;;1.57;0.80;;;19.20;99.90;;;;;;5033095;28;20410;-68
2021/09/16 10:25:13;;;;;;;1.27;0.90;;;19.60;99.90;;;;;;5032985;28;20423;-69
2021/09/16 10:27:41;;;;;;;1.20;1.10;;;19.30;99.90;;;;;;5032676;28;20448;-68
2021/09/16 10:30:21;;;;;;;3.73;1.37;;;19.50;99.90;;;;;;5032909;28;20420;-69
2021/09/16 10:32:58;;;;;;;2.63;1.00;;;19.60;99.90;;;;;;5032817;28;20458;-69
2021/09/16 10:35:23;;;;;;;1.83;0.90;;;19.90;99.90;;;;;;5032643;28;20425;-69
2021/09/16 10:37:49;;;;;;;3.27;0.87;;;19.70;99.90;;;;;;5032966;28;20555;-69
2021/09/16 10:40:24;;;;;;;2.00;1.13;;;19.50;99.90;;;;;;5033584;28;20190;-70
2021/09/16 10:42:52;;;;;;;1.40;1.07;;;19.50;99.90;;;;;;5033222;28;20895;-70
2021/09/16 10:45:34;;;;;;;1.57;0.90;;;19.50;99.90;;;;;;5032772;28;20502;-71
2021/09/16 10:48:18;;;;;;;2.50;0.90;;;19.60;99.90;;;;;;5032530;28;20395;-69
2021/09/16 10:50:49;;;;;;;0.70;0.70;;;19.50;99.90;;;;;;5032385;28;20458;-69
2021/09/16 10:53:40;;;;;;;1.33;0.90;;;18.90;99.90;;;;;;5032222;28;21061;-70
2021/09/16 10:56:26;;;;;;;1.07;0.97;;;18.70;99.90;;;;;;5032181;28;20859;-70
2021/09/16 10:58:54;;;;;;;1.07;0.90;;;18.90;99.90;;;;;;5032273;28;20449;-69
2021/09/16 11:01:51;;;;;;;1.67;1.10;;;18.80;99.90;;;;;;5014405;28;20758;-70
2021/09/16 11:04:17;;;;;;;1.03;0.93;;;18.40;99.90;;;;;;5032612;28;20827;-69
2021/09/16 11:06:44;;;;;;;1.30;0.97;;;18.60;99.90;;;;;;5032037;28;20501;-71
2021/09/16 11:09:12;;;;;;;1.97;1.30;;;18.60;99.90;;;;;;5014448;28;20461;-69
2021/09/16 11:11:58;;;;;;;3.30;1.00;;;18.50;99.90;;;;;;5031918;28;20459;-69
2021/09/16 11:14:44;;;;;;;2.93;0.93;;;18.60;99.90;;;;;;5031975;28;20436;-70
2021/09/16 11:17:11;;;;;;;2.50;0.90;;;18.60;99.90;;;;;;5031601;28;20488;-70
2021/09/16 11:19:45;;;;;;;2.23;1.13;;;18.40;99.90;;;;;;5032009;28;20435;-71
2021/09/16 11:22:11;;;;;;;1.03;0.90;;;18.30;99.90;;;;;;5031908;28;20982;-69
2021/09/16 11:24:39;;;;;;;2.63;1.07;;;18.10;99.90;;;;;;5031890;28;20419;-69
2021/09/16 11:27:07;;;;;;;2.50;1.20;;;18.20;99.90;;;;;;5031383;28;20649;-69
2021/09/16 11:29:45;;;;;;;2.10;1.20;;;18.40;99.90;;;;;;5031897;28;20405;-70
2021/09/16 11:32:12;;;;;;;2.40;1.53;;;18.20;99.90;;;;;;5031779;28;20974;-69
2021/09/16 11:34:53;;;;;;;2.07;1.10;;;18.30;99.90;;;;;;5031738;28;20447;-69
2021/09/16 11:37:22;;;;;;;1.57;1.00;;;18.30;99.90;;;;;;5031258;28;20405;-69
2021/09/16 11:40:05;;;;;;;3.40;1.00;;;18.20;99.90;;;;;;5031530;28;20432;-70
2021/09/16 11:42:33;;;;;;;2.83;1.30;;;18.30;99.90;;;;;;5031905;28;20444;-68
2021/09/16 11:45:03;;;;;;;2.30;0.90;;;18.40;99.90;;;;;;5013961;28;20454;-69
2021/09/16 11:47:29;;;;;;;1.70;1.20;;;18.40;99.90;;;;;;5031354;28;20428;-69
2021/09/16 11:49:55;;;;;;;1.70;0.83;;;18.00;99.90;;;;;;5031468;28;20419;-69
2021/09/16 11:52:23;;;;;;;2.37;1.60;;;18.30;99.90;;;;;;5031519;28;20458;-69
2021/09/16 11:55:03;;;;;;;1.00;0.90;;;18.40;99.90;;;;;;5031467;28;20466;-70
2021/09/16 11:57:28;;;;;;;1.90;0.97;;;18.40;99.90;;;;;;5030915;28;20430;-69
2021/09/16 11:59:54;;;;;;;1.30;1.03;;;18.60;99.90;;;;;;5031376;28;20907;-69
2021/09/16 12:02:19;;;;;;;3.80;0.90;;;19.00;99.90;;;;;;5031021;28;20261;-69
2021/09/16 12:04:46;;;;;;;4.30;1.40;;;19.00;99.90;;;;;;5013362;28;20189;-70
2021/09/16 12:07:15;;;;;;;2.23;1.10;;;18.80;99.90;;;;;;5031584;28;20176;-69
2021/09/16 12:09:41;;;;;;;1.77;0.80;;;18.70;99.90;;;;;;5031566;28;20419;-70
2021/09/16 12:12:08;;;;;;;4.73;2.03;;;18.70;99.90;;;;;;5031235;28;20488;-70
2021/09/16 12:14:37;;;;;;;3.90;1.00;;;18.80;99.90;;;;;;5031426;28;20424;-70
2021/09/16 12:17:04;;;;;;;2.13;0.97;;;18.80;99.90;;;;;;5031028;28;20419;-69
2021/09/16 12:19:29;;;;;;;2.77;0.97;;;18.90;99.90;;;;;;5031132;28;20498;-69
2021/09/16 12:21:56;;;;;;;1.83;0.87;;;18.80;99.90;;;;;;5031214;28;20409;-70
2021/09/16 12:24:27;;;;;;;2.33;0.90;;;19.00;99.90;;;;;;5031150;28;20187;-69
2021/09/16 12:26:54;;;;;;;2.33;0.90;;;18.90;99.90;;;;;;5030869;28;20411;-69
2021/09/16 12:29:33;;;;;;;1.80;1.20;;;18.80;99.90;;;;;;5031071;28;20947;-69
2021/09/16 12:32:02;;;;;;;6.47;0.90;;;18.80;99.90;;;;;;5031190;28;20459;-70
2021/09/16 12:34:36;;;;;;;1.47;0.90;;;18.70;99.90;;;;;;5031247;28;20433;-70
2021/09/16 12:37:07;;;;;;;1.03;0.77;;;19.10;99.90;;;;;;5030731;28;20428;-69